createdAt,value
2022-11-28T00:01:36.087Z,2.10
2022-11-28T00:04:04.857Z,2.10
2022-11-28T00:06:32.224Z,2.20
2022-11-28T00:09:00.668Z,2.20
2022-11-28T00:11:27.883Z,2.20
2022-11-28T00:13:55.494Z,2.20
2022-11-28T00:16:23.623Z,2.20
2022-11-28T00:18:52.550Z,2.20
2022-11-28T00:21:20.456Z,2.20
2022-11-28T00:23:48.908Z,2.20
2022-11-28T00:26:22.811Z,2.10
2022-11-28T00:28:50.539Z,2.10
2022-11-28T00:31:22.570Z,2.10
2022-11-28T00:33:49.867Z,2.10
2022-11-28T00:36:18.212Z,2.10
2022-11-28T00:38:45.722Z,2.10
2022-11-28T00:41:15.714Z,2.10
2022-11-28T00:43:44.493Z,2.10
2022-11-28T00:46:13.234Z,2.20
2022-11-28T00:48:40.841Z,2.20
2022-11-28T00:51:09.389Z,2.20
2022-11-28T00:53:37.405Z,2.20
2022-11-28T00:56:05.732Z,2.20
2022-11-28T00:58:34.641Z,2.20
2022-11-28T01:01:27.122Z,2.20
2022-11-28T01:03:56.190Z,2.20
2022-11-28T01:06:32.018Z,2.20
2022-11-28T01:09:23.189Z,2.20
2022-11-28T01:11:52.428Z,2.10
2022-11-28T01:14:24.382Z,2.10
2022-11-28T01:16:52.117Z,2.10
2022-11-28T01:19:19.917Z,2.10
2022-11-28T01:21:47.269Z,2.10
2022-11-28T01:24:15.009Z,2.10
2022-11-28T01:26:42.781Z,2.10
2022-11-28T01:29:10.242Z,2.10
2022-11-28T01:31:38.311Z,2.10
2022-11-28T01:34:05.486Z,2.00
2022-11-28T01:36:32.663Z,2.10
2022-11-28T01:38:59.825Z,2.10
2022-11-28T01:41:28.059Z,2.10
2022-11-28T01:44:06.665Z,2.10
2022-11-28T01:46:35.857Z,2.10
2022-11-28T01:49:12.828Z,2.10
2022-11-28T01:51:46.018Z,2.10
2022-11-28T01:54:14.962Z,2.10
2022-11-28T01:56:51.095Z,2.10
2022-11-28T01:59:20.372Z,2.10
2022-11-28T02:01:47.680Z,2.10
2022-11-28T02:04:15.213Z,2.10
2022-11-28T02:06:42.844Z,2.10
2022-11-28T02:09:14.680Z,2.10
2022-11-28T02:12:13.430Z,2.10
2022-11-28T02:15:00.190Z,2.10
2022-11-28T02:17:50.258Z,2.10
2022-11-28T02:20:43.578Z,2.00
2022-11-28T02:23:51.851Z,2.00
2022-11-28T02:26:50.017Z,2.00
2022-11-28T02:29:41.157Z,2.00
2022-11-28T02:32:45.802Z,2.00
2022-11-28T02:35:38.069Z,2.10
2022-11-28T02:38:23.552Z,2.10
2022-11-28T02:40:50.634Z,2.20
2022-11-28T02:43:50.280Z,2.20
2022-11-28T02:46:30.001Z,2.20
2022-11-28T02:49:02.997Z,2.20
2022-11-28T02:51:55.337Z,2.20
2022-11-28T02:54:24.789Z,2.20
2022-11-28T02:56:53.510Z,2.20
2022-11-28T02:59:27.715Z,2.20
2022-11-28T03:01:55.187Z,2.20
2022-11-28T03:04:48.729Z,2.20
2022-11-28T03:07:31.138Z,2.20
2022-11-28T03:10:12.006Z,2.20
2022-11-28T03:13:00.448Z,2.20
2022-11-28T03:15:44.282Z,2.20
2022-11-28T03:18:22.703Z,2.20
2022-11-28T03:21:05.678Z,2.10
2022-11-28T03:23:37.588Z,2.10
2022-11-28T03:26:32.310Z,2.10
2022-11-28T03:29:39.290Z,2.10
2022-11-28T03:32:11.864Z,2.10
2022-11-28T03:34:44.627Z,2.10
2022-11-28T03:37:17.913Z,2.10
2022-11-28T03:39:50.205Z,2.10
2022-11-28T03:42:22.388Z,2.00
2022-11-28T03:45:13.753Z,2.00
2022-11-28T03:47:47.233Z,2.00
2022-11-28T03:50:20.392Z,2.00
2022-11-28T03:52:56.226Z,2.00
2022-11-28T03:55:30.377Z,1.90
2022-11-28T03:58:02.573Z,1.90
2022-11-28T04:00:30.479Z,1.90
2022-11-28T04:03:17.640Z,1.80
2022-11-28T04:05:49.402Z,1.80
2022-11-28T04:08:29.399Z,1.80
2022-11-28T04:11:33.703Z,1.80
2022-11-28T04:14:12.944Z,1.80
2022-11-28T04:17:05.320Z,1.70
2022-11-28T04:19:47.318Z,1.80
2022-11-28T04:22:44.097Z,1.80
2022-11-28T04:25:16.395Z,1.90
2022-11-28T04:27:52.037Z,1.90
2022-11-28T04:30:19.389Z,1.90
2022-11-28T04:32:50.915Z,1.90
2022-11-28T04:35:32.861Z,2.00
2022-11-28T04:38:02.818Z,2.00
2022-11-28T04:40:33.030Z,2.00
2022-11-28T04:43:08.670Z,2.00
2022-11-28T04:45:43.443Z,2.10
2022-11-28T04:48:10.822Z,2.00
2022-11-28T04:50:59.866Z,2.00
2022-11-28T04:53:56.311Z,2.10
2022-11-28T04:56:38.806Z,2.00
2022-11-28T04:59:07.381Z,2.10
2022-11-28T05:01:36.131Z,2.10
2022-11-28T05:04:03.600Z,2.10
2022-11-28T05:06:34.313Z,2.10
2022-11-28T05:09:01.623Z,2.10
2022-11-28T05:11:29.261Z,2.10
2022-11-28T05:13:56.553Z,2.10
2022-11-28T05:16:23.817Z,2.00
2022-11-28T05:18:51.015Z,2.00
2022-11-28T05:21:18.187Z,2.10
2022-11-28T05:23:45.739Z,2.00
2022-11-28T05:26:16.160Z,1.80
2022-11-28T05:28:45.601Z,1.70
2022-11-28T05:31:13.721Z,1.70
2022-11-28T05:33:41.011Z,1.60
2022-11-28T05:36:13.204Z,1.60
2022-11-28T05:38:41.940Z,1.60
2022-11-28T05:41:09.989Z,1.70
2022-11-28T05:43:37.296Z,1.70
2022-11-28T05:46:06.672Z,1.80
2022-11-28T05:48:33.948Z,1.90
2022-11-28T05:51:03.691Z,2.00
2022-11-28T05:53:30.837Z,2.00
2022-11-28T05:55:58.221Z,2.00
2022-11-28T05:58:25.837Z,2.00
2022-11-28T06:00:52.999Z,2.10
2022-11-28T06:03:20.158Z,2.20
2022-11-28T06:05:48.143Z,2.20
2022-11-28T06:08:15.901Z,2.20
2022-11-28T06:10:43.178Z,2.20
2022-11-28T06:13:10.409Z,2.30
2022-11-28T06:15:38.635Z,2.30
2022-11-28T06:18:06.143Z,2.30
2022-11-28T06:20:35.682Z,2.40
2022-11-28T06:23:02.808Z,2.40
2022-11-28T06:25:30.005Z,2.40
2022-11-28T06:27:57.151Z,2.40
2022-11-28T06:30:24.370Z,2.50
2022-11-28T06:32:51.547Z,2.40
2022-11-28T06:35:18.685Z,2.50
2022-11-28T06:37:45.829Z,2.50
2022-11-28T06:40:13.422Z,2.50
2022-11-28T06:42:40.649Z,2.50
2022-11-28T06:45:09.169Z,2.50
2022-11-28T06:47:36.281Z,2.40
2022-11-28T06:50:03.660Z,2.50
2022-11-28T06:52:30.831Z,2.50
2022-11-28T06:54:57.963Z,2.40
2022-11-28T06:57:25.202Z,2.50
2022-11-28T06:59:52.387Z,2.50
2022-11-28T07:02:19.787Z,2.60
2022-11-28T07:04:47.004Z,2.60
2022-11-28T07:07:16.644Z,2.60
2022-11-28T07:09:44.387Z,2.60
2022-11-28T07:12:11.741Z,2.60
2022-11-28T07:14:39.140Z,2.60
2022-11-28T07:17:06.361Z,2.60
2022-11-28T07:19:34.282Z,2.70
2022-11-28T07:22:01.539Z,2.60
2022-11-28T07:24:30.018Z,2.60
2022-11-28T07:26:57.243Z,2.60
2022-11-28T07:29:24.592Z,2.60
2022-11-28T07:31:52.027Z,2.60
2022-11-28T07:34:19.242Z,2.60
2022-11-28T07:36:46.420Z,2.70
2022-11-28T07:39:16.015Z,2.70
2022-11-28T07:41:43.484Z,2.70
2022-11-28T07:44:11.580Z,2.80
2022-11-28T07:46:39.557Z,2.80
2022-11-28T07:49:06.779Z,2.90
2022-11-28T07:51:34.685Z,2.90
2022-11-28T07:54:03.243Z,2.90
2022-11-28T07:56:57.264Z,3.00
2022-11-28T07:59:22.924Z,3.00
2022-11-28T08:01:50.175Z,3.00
2022-11-28T08:04:17.549Z,3.00
2022-11-28T08:06:44.971Z,3.00
2022-11-28T08:09:12.284Z,3.10
2022-11-28T08:11:39.825Z,3.10
2022-11-28T08:14:07.222Z,3.20
2022-11-28T08:16:34.780Z,3.20
2022-11-28T08:19:02.846Z,3.30
2022-11-28T08:21:35.192Z,3.30
2022-11-28T08:24:04.350Z,3.40
2022-11-28T08:26:32.845Z,3.40
2022-11-28T08:29:02.321Z,3.40
2022-11-28T08:31:32.550Z,3.40
2022-11-28T08:34:01.879Z,3.40
2022-11-28T08:36:29.632Z,3.40
2022-11-28T08:41:47.128Z,3.40
2022-11-28T08:44:14.344Z,3.50
2022-11-28T08:46:41.570Z,3.50
2022-11-28T08:49:08.694Z,3.60
2022-11-28T08:51:37.052Z,3.60
2022-11-28T08:54:04.381Z,3.70
2022-11-28T08:56:31.798Z,3.70
2022-11-28T08:58:59.967Z,3.80
2022-11-28T09:01:27.770Z,3.90
2022-11-28T09:03:56.158Z,3.90
2022-11-28T09:06:24.112Z,4.00
2022-11-28T09:08:52.238Z,4.00
2022-11-28T09:11:21.678Z,4.10
2022-11-28T09:13:49.197Z,4.20
2022-11-28T09:16:16.915Z,4.20
2022-11-28T09:18:44.162Z,4.30
2022-11-28T09:21:14.364Z,4.40
2022-11-28T09:23:43.817Z,4.50
2022-11-28T09:26:12.706Z,4.50
2022-11-28T09:28:40.098Z,4.60
2022-11-28T09:31:08.082Z,4.60
2022-11-28T09:33:35.990Z,4.70
2022-11-28T09:36:08.088Z,4.70
2022-11-28T09:38:36.001Z,4.70
2022-11-28T09:41:04.333Z,4.80
2022-11-28T09:43:35.563Z,4.80
2022-11-28T09:46:09.833Z,4.80
2022-11-28T09:48:44.906Z,4.90
2022-11-28T09:51:42.565Z,5.10
2022-11-28T09:54:30.890Z,5.10
2022-11-28T09:56:58.916Z,5.20
2022-11-28T09:59:28.998Z,5.10
2022-11-28T10:02:20.949Z,5.10
2022-11-28T10:05:00.720Z,5.20
2022-11-28T10:07:42.873Z,5.30
2022-11-28T10:10:25.257Z,5.30
2022-11-28T10:13:02.898Z,5.40
2022-11-28T10:15:55.307Z,5.50
2022-11-28T10:18:28.228Z,5.50
2022-11-28T10:21:00.723Z,5.60
2022-11-28T10:23:39.564Z,5.70
2022-11-28T10:26:16.114Z,5.80
2022-11-28T10:28:48.376Z,5.80
2022-11-28T10:31:36.364Z,5.90
2022-11-28T10:34:19.425Z,6.00
2022-11-28T10:37:11.424Z,6.00
2022-11-28T10:39:44.936Z,6.10
2022-11-28T10:42:28.472Z,6.20
2022-11-28T10:45:17.929Z,6.20
2022-11-28T10:48:38.044Z,6.20
2022-11-28T10:51:26.719Z,6.20
2022-11-28T10:54:19.023Z,6.30
2022-11-28T10:57:07.134Z,6.40
2022-11-28T10:59:59.726Z,6.40
2022-11-28T11:02:46.334Z,6.40
2022-11-28T11:05:35.302Z,6.50
2022-11-28T11:08:22.855Z,6.60
2022-11-28T11:10:58.133Z,6.60
2022-11-28T11:13:31.046Z,6.70
2022-11-28T11:16:01.680Z,6.70
2022-11-28T11:18:34.870Z,6.80
2022-11-28T11:21:21.340Z,6.90
2022-11-28T11:23:49.945Z,6.90
2022-11-28T11:26:40.379Z,6.90
2022-11-28T11:29:21.289Z,7.00
2022-11-28T11:31:53.125Z,7.00
2022-11-28T11:34:23.431Z,7.00
2022-11-28T11:36:51.349Z,7.00
2022-11-28T11:39:25.415Z,7.10
2022-11-28T11:42:01.679Z,7.20
2022-11-28T11:44:34.083Z,7.20
2022-11-28T11:47:09.260Z,7.30
2022-11-28T11:49:48.183Z,7.30
2022-11-28T11:52:23.693Z,7.30
2022-11-28T11:54:58.578Z,7.30
2022-11-28T11:57:33.466Z,7.40
2022-11-28T12:00:22.562Z,7.50
2022-11-28T12:03:00.000Z,7.50
2022-11-28T12:05:46.396Z,7.50
2022-11-28T12:08:33.706Z,7.70
2022-11-28T12:11:15.918Z,7.50
2022-11-28T12:13:43.546Z,7.60
2022-11-28T12:16:30.168Z,7.70
2022-11-28T12:19:20.717Z,7.70
2022-11-28T12:21:59.763Z,7.70
2022-11-28T12:24:39.250Z,7.70
2022-11-28T12:27:09.437Z,7.70
2022-11-28T12:30:12.031Z,7.70
2022-11-28T12:33:06.555Z,7.70
2022-11-28T12:35:36.419Z,7.80
2022-11-28T12:38:12.027Z,7.70
2022-11-28T12:40:54.187Z,7.80
2022-11-28T12:43:46.436Z,7.80
2022-11-28T12:46:33.517Z,7.90
2022-11-28T12:49:25.579Z,7.90
2022-11-28T12:52:19.139Z,7.90
2022-11-28T12:55:22.848Z,7.90
2022-11-28T12:57:49.974Z,7.90
2022-11-28T13:00:20.362Z,8.10
2022-11-28T13:03:05.648Z,8.00
2022-11-28T13:06:03.965Z,8.00
2022-11-28T13:08:31.078Z,7.90
2022-11-28T13:11:04.038Z,7.90
2022-11-28T13:13:46.315Z,7.90
2022-11-28T13:16:41.626Z,7.90
2022-11-28T13:19:44.166Z,7.90
2022-11-28T13:22:14.947Z,7.90
2022-11-28T13:24:53.695Z,7.90
2022-11-28T13:27:46.444Z,7.90
2022-11-28T13:30:17.291Z,7.80
2022-11-28T13:33:18.663Z,7.80
2022-11-28T13:35:46.778Z,7.80
2022-11-28T13:38:47.170Z,7.80
2022-11-28T13:41:52.758Z,7.80
2022-11-28T13:44:23.260Z,7.80
2022-11-28T13:46:51.612Z,7.80
2022-11-28T13:49:24.001Z,7.80
2022-11-28T13:52:19.134Z,7.80
2022-11-28T13:54:52.868Z,7.80
2022-11-28T13:57:29.667Z,7.80
2022-11-28T14:00:07.058Z,7.80
2022-11-28T14:02:51.127Z,7.80
2022-11-28T14:05:41.558Z,7.80
2022-11-28T14:08:35.046Z,7.80
2022-11-28T14:11:27.581Z,7.70
2022-11-28T14:14:23.539Z,7.70
2022-11-28T14:16:56.851Z,7.70
2022-11-28T14:19:45.193Z,7.70
2022-11-28T14:22:33.750Z,7.60
2022-11-28T14:25:11.574Z,7.60
2022-11-28T14:27:40.008Z,7.50
2022-11-28T14:30:37.021Z,7.50
2022-11-28T14:33:43.571Z,7.40
2022-11-28T14:36:23.632Z,7.40
2022-11-28T14:39:15.447Z,7.40
2022-11-28T14:42:02.632Z,7.30
2022-11-28T14:44:56.127Z,7.50
2022-11-28T14:47:24.026Z,7.30
2022-11-28T14:50:13.950Z,7.30
2022-11-28T14:52:43.359Z,7.30
2022-11-28T14:55:13.077Z,7.40
2022-11-28T14:57:59.460Z,7.30
2022-11-28T15:00:28.845Z,7.30
2022-11-28T15:03:17.921Z,7.30
2022-11-28T15:05:58.882Z,7.30
2022-11-28T15:08:38.103Z,7.30
2022-11-28T15:11:14.553Z,7.20
2022-11-28T15:14:00.675Z,7.20
2022-11-28T15:16:32.532Z,7.20
2022-11-28T15:19:07.703Z,7.20
2022-11-28T15:21:46.646Z,7.20
2022-11-28T15:24:37.810Z,7.10
2022-11-28T15:27:07.989Z,7.10
2022-11-28T15:29:36.696Z,7.10
2022-11-28T15:32:05.373Z,7.10
2022-11-28T15:34:38.357Z,7.10
2022-11-28T15:37:17.580Z,7.10
2022-11-28T15:39:49.643Z,7.00
2022-11-28T15:42:34.685Z,6.90
2022-11-28T15:45:16.622Z,6.90
2022-11-28T15:47:46.553Z,6.90
2022-11-28T15:50:18.205Z,6.90
2022-11-28T15:52:58.288Z,6.90
2022-11-28T15:55:31.140Z,7.00
2022-11-28T15:58:17.707Z,7.00
2022-11-28T16:00:50.367Z,7.10
2022-11-28T16:03:23.634Z,7.00
2022-11-28T16:05:54.397Z,7.00
2022-11-28T16:08:33.305Z,7.00
2022-11-28T16:11:05.504Z,7.00
2022-11-28T16:13:34.311Z,7.00
2022-11-28T16:16:03.944Z,7.00
2022-11-28T16:18:31.532Z,6.90
2022-11-28T16:21:00.830Z,6.90
2022-11-28T16:23:34.634Z,6.90
2022-11-28T16:26:25.688Z,6.90
2022-11-28T16:29:08.121Z,7.00
2022-11-28T16:31:35.565Z,6.90
2022-11-28T16:34:03.563Z,6.90
2022-11-28T16:36:33.836Z,6.90
2022-11-28T16:39:27.183Z,6.90
2022-11-28T16:42:17.755Z,6.90
2022-11-28T16:44:45.070Z,6.90
2022-11-28T16:47:30.230Z,6.90
2022-11-28T16:50:15.399Z,7.00
2022-11-28T16:52:57.793Z,7.00
2022-11-28T16:55:31.584Z,6.90
2022-11-28T16:58:11.984Z,6.90
2022-11-28T17:00:42.479Z,6.90
2022-11-28T17:03:40.595Z,6.90
2022-11-28T17:06:34.298Z,6.80
2022-11-28T17:09:02.536Z,6.80
2022-11-28T17:11:38.614Z,6.80
2022-11-28T17:14:11.900Z,6.80
2022-11-28T17:16:41.803Z,6.80
2022-11-28T17:19:09.101Z,6.80
2022-11-28T17:21:45.355Z,6.70
2022-11-28T17:24:29.485Z,6.80
2022-11-28T17:26:56.686Z,6.80
2022-11-28T17:29:25.227Z,6.70
2022-11-28T17:31:55.041Z,6.70
2022-11-28T17:34:23.358Z,6.70
2022-11-28T17:36:51.373Z,6.70
2022-11-28T17:39:19.987Z,6.70
2022-11-28T17:41:47.429Z,6.60
2022-11-28T17:44:25.225Z,6.60
2022-11-28T17:46:55.209Z,6.60
2022-11-28T17:49:23.687Z,6.60
2022-11-28T17:51:52.396Z,6.60
2022-11-28T17:54:22.054Z,6.60
2022-11-28T17:56:51.199Z,6.70
2022-11-28T17:59:20.943Z,6.70
2022-11-28T18:01:48.909Z,6.70
2022-11-28T18:04:16.586Z,6.70
2022-11-28T18:06:44.907Z,6.60
2022-11-28T18:09:13.377Z,6.70
2022-11-28T18:11:41.829Z,6.70
2022-11-28T18:14:09.692Z,6.70
2022-11-28T18:16:37.310Z,6.70
2022-11-28T18:19:04.551Z,6.70
2022-11-28T18:21:33.082Z,6.60
2022-11-28T18:24:00.349Z,6.60
2022-11-28T18:26:27.799Z,6.60
2022-11-28T18:28:55.837Z,6.60
2022-11-28T18:31:27.970Z,6.60
2022-11-28T18:34:00.304Z,6.60
2022-11-28T18:36:31.338Z,6.60
2022-11-28T18:39:00.793Z,6.70
2022-11-28T18:41:29.464Z,6.70
2022-11-28T18:43:58.332Z,6.70
2022-11-28T18:46:27.481Z,6.70
2022-11-28T18:48:54.751Z,6.70
2022-11-28T18:51:25.983Z,6.70
2022-11-28T18:53:54.304Z,6.70
2022-11-28T18:56:22.224Z,6.70
2022-11-28T18:58:52.886Z,6.70
2022-11-28T19:01:28.113Z,6.70
2022-11-28T19:03:58.098Z,6.60
2022-11-28T19:06:26.202Z,6.70
2022-11-28T19:08:55.538Z,6.60
2022-11-28T19:11:23.286Z,6.60
2022-11-28T19:13:53.319Z,6.60
2022-11-28T19:16:27.061Z,6.60
2022-11-28T19:18:55.908Z,6.60
2022-11-28T19:21:26.356Z,6.60
2022-11-28T19:23:55.448Z,6.70
2022-11-28T19:26:25.003Z,6.60
2022-11-28T19:28:53.523Z,6.70
2022-11-28T19:31:29.591Z,6.60
2022-11-28T19:34:02.965Z,6.60
2022-11-28T19:36:34.615Z,6.60
2022-11-28T19:39:03.543Z,6.60
2022-11-28T19:41:32.178Z,6.50
2022-11-28T19:43:59.635Z,6.50
2022-11-28T19:46:35.036Z,6.50
2022-11-28T19:49:04.529Z,6.50
2022-11-28T19:51:31.787Z,6.40
2022-11-28T19:54:03.161Z,6.40
2022-11-28T19:56:32.300Z,6.30
2022-11-28T19:59:00.238Z,6.30
2022-11-28T20:01:28.541Z,6.30
2022-11-28T20:03:57.442Z,6.30
2022-11-28T20:06:27.816Z,6.40
2022-11-28T20:08:58.731Z,6.20
2022-11-28T20:11:31.861Z,6.20
2022-11-28T20:14:02.254Z,6.20
2022-11-28T20:16:31.544Z,6.20
2022-11-28T20:19:00.537Z,6.20
2022-11-28T20:21:29.567Z,6.20
2022-11-28T20:24:04.278Z,6.20
2022-11-28T20:26:36.136Z,6.20
2022-11-28T20:29:05.729Z,6.20
2022-11-28T20:31:41.969Z,6.20
2022-11-28T20:34:09.586Z,6.20
2022-11-28T20:36:38.084Z,6.10
2022-11-28T20:39:07.164Z,6.20
2022-11-28T20:41:34.307Z,6.10
2022-11-28T20:44:02.025Z,6.10
2022-11-28T20:46:32.643Z,6.10
2022-11-28T20:49:02.197Z,6.10
2022-11-28T20:51:31.189Z,6.10
2022-11-28T20:53:59.111Z,6.10
2022-11-28T20:56:30.020Z,6.10
2022-11-28T20:59:01.980Z,6.10
2022-11-28T21:01:34.901Z,6.10
2022-11-28T21:04:04.161Z,6.10
2022-11-28T21:06:31.678Z,6.10
2022-11-28T21:08:58.982Z,6.10
2022-11-28T21:11:50.506Z,6.10
2022-11-28T21:14:15.412Z,6.20
2022-11-28T21:16:43.599Z,6.20
2022-11-28T21:19:11.188Z,6.20
2022-11-28T21:21:39.730Z,6.20
2022-11-28T21:24:10.862Z,6.20
2022-11-28T21:26:42.416Z,6.10
2022-11-28T21:29:12.678Z,6.10
2022-11-28T21:31:43.023Z,6.10
2022-11-28T21:34:14.126Z,6.10
2022-11-28T21:36:42.425Z,6.10
2022-11-28T21:39:14.731Z,6.10
2022-11-28T21:41:42.226Z,6.10
2022-11-28T21:44:09.438Z,6.10
2022-11-28T21:46:36.758Z,6.00
2022-11-28T21:49:04.169Z,6.10
2022-11-28T21:51:31.386Z,6.10
2022-11-28T21:53:58.726Z,6.20
2022-11-28T21:56:26.508Z,6.20
2022-11-28T21:58:54.354Z,6.20
2022-11-28T22:01:21.720Z,6.20
2022-11-28T22:03:49.642Z,6.20
2022-11-28T22:06:23.984Z,6.20
2022-11-28T22:08:51.523Z,6.10
2022-11-28T22:11:20.132Z,6.10
2022-11-28T22:13:49.294Z,6.10
2022-11-28T22:16:25.159Z,6.00
2022-11-28T22:18:54.913Z,6.00
2022-11-28T22:21:50.676Z,6.00
2022-11-28T22:24:09.887Z,6.00
2022-11-28T22:26:37.975Z,6.10
2022-11-28T22:29:05.659Z,6.10
2022-11-28T22:31:33.222Z,6.10
2022-11-28T22:34:00.790Z,6.10
2022-11-28T22:36:28.711Z,6.10
2022-11-28T22:38:57.732Z,6.10
2022-11-28T22:41:29.211Z,6.10
2022-11-28T22:44:00.579Z,6.20
2022-11-28T22:46:28.921Z,6.20
2022-11-28T22:48:59.875Z,6.20
2022-11-28T22:51:28.318Z,6.20
2022-11-28T22:53:57.393Z,6.20
2022-11-28T22:56:27.695Z,6.10
2022-11-28T22:58:55.153Z,6.10
2022-11-28T23:01:29.622Z,6.10
2022-11-28T23:03:57.915Z,6.10
2022-11-28T23:06:27.992Z,6.10
2022-11-28T23:08:56.455Z,6.10
2022-11-28T23:11:32.729Z,6.10
2022-11-28T23:14:01.246Z,6.10
2022-11-28T23:16:31.110Z,6.10
2022-11-28T23:19:01.234Z,6.10
2022-11-28T23:21:36.384Z,6.10
2022-11-28T23:24:05.442Z,6.10
2022-11-28T23:26:34.270Z,6.10
2022-11-28T23:29:04.342Z,6.10
2022-11-28T23:31:34.458Z,6.10
2022-11-28T23:34:02.154Z,6.10
2022-11-28T23:36:38.476Z,6.10
2022-11-28T23:39:12.413Z,6.10
2022-11-28T23:41:39.670Z,6.10
2022-11-28T23:44:07.081Z,6.10
2022-11-28T23:46:34.486Z,6.10
2022-11-28T23:49:01.683Z,6.10
2022-11-28T23:51:28.891Z,6.10
2022-11-28T23:53:56.063Z,6.10
2022-11-28T23:56:26.262Z,6.10
2022-11-28T23:58:55.338Z,6.10
